sensor_id;sensor_type;location;lat;lon;timestamp;pressure;altitude;pressure_sealevel;temperature;humidity
64889;BME280;51386;53.082;8.816;2024-02-26T00:00:00;100265.09;;;8.71;66.78
64889;BME280;51386;53.082;8.816;2024-02-26T00:02:28;100271.97;;;8.72;66.91
64889;BME280;51386;53.082;8.816;2024-02-26T00:04:57;100263.13;;;8.73;67.04
64889;BME280;51386;53.082;8.816;2024-02-26T00:07:25;100259.34;;;8.76;67.10
64889;BME280;51386;53.082;8.816;2024-02-26T00:09:53;100259.97;;;8.78;66.84
64889;BME280;51386;53.082;8.816;2024-02-26T00:12:22;100250.63;;;8.75;66.53
64889;BME280;51386;53.082;8.816;2024-02-26T00:14:50;100254.44;;;8.73;67.06
64889;BME280;51386;53.082;8.816;2024-02-26T00:17:20;100262.31;;;8.73;67.03
64889;BME280;51386;53.082;8.816;2024-02-26T00:19:49;100262.31;;;8.73;67.06
64889;BME280;51386;53.082;8.816;2024-02-26T00:22:17;100250.97;;;8.72;66.95
64889;BME280;51386;53.082;8.816;2024-02-26T00:24:45;100259.03;;;8.71;66.95
64889;BME280;51386;53.082;8.816;2024-02-26T00:27:14;100252.81;;;8.72;67.34
64889;BME280;51386;53.082;8.816;2024-02-26T00:29:42;100258.84;;;8.72;67.14
64889;BME280;51386;53.082;8.816;2024-02-26T00:32:11;100249.19;;;8.73;67.06
64889;BME280;51386;53.082;8.816;2024-02-26T00:34:39;100252.00;;;8.71;67.05
64889;BME280;51386;53.082;8.816;2024-02-26T00:37:07;100255.44;;;8.72;67.07
64889;BME280;51386;53.082;8.816;2024-02-26T00:39:36;100246.94;;;8.70;66.81
64889;BME280;51386;53.082;8.816;2024-02-26T00:42:04;100244.47;;;8.68;66.75
64889;BME280;51386;53.082;8.816;2024-02-26T00:44:33;100250.88;;;8.66;66.62
64889;BME280;51386;53.082;8.816;2024-02-26T00:47:01;100249.59;;;8.62;66.21
64889;BME280;51386;53.082;8.816;2024-02-26T00:49:30;100252.25;;;8.54;66.48
64889;BME280;51386;53.082;8.816;2024-02-26T00:51:58;100257.38;;;8.47;66.88
64889;BME280;51386;53.082;8.816;2024-02-26T00:54:27;100253.31;;;8.45;66.60
64889;BME280;51386;53.082;8.816;2024-02-26T00:56:55;100257.25;;;8.41;67.04
64889;BME280;51386;53.082;8.816;2024-02-26T00:59:23;100250.38;;;8.40;67.08
64889;BME280;51386;53.082;8.816;2024-02-26T01:01:52;100247.44;;;8.35;66.72
64889;BME280;51386;53.082;8.816;2024-02-26T01:04:20;100248.59;;;8.32;66.85
64889;BME280;51386;53.082;8.816;2024-02-26T01:06:48;100245.53;;;8.29;66.95
64889;BME280;51386;53.082;8.816;2024-02-26T01:09:17;100248.34;;;8.27;66.98
64889;BME280;51386;53.082;8.816;2024-02-26T01:11:46;100245.19;;;8.24;66.93
64889;BME280;51386;53.082;8.816;2024-02-26T01:14:15;100245.53;;;8.20;66.82
64889;BME280;51386;53.082;8.816;2024-02-26T01:16:43;100243.91;;;8.19;66.98
64889;BME280;51386;53.082;8.816;2024-02-26T01:19:11;100241.81;;;8.15;67.07
64889;BME280;51386;53.082;8.816;2024-02-26T01:21:40;100240.84;;;8.08;66.62
64889;BME280;51386;53.082;8.816;2024-02-26T01:24:08;100248.88;;;8.06;67.23
64889;BME280;51386;53.082;8.816;2024-02-26T01:26:37;100247.91;;;8.07;67.57
64889;BME280;51386;53.082;8.816;2024-02-26T01:29:05;100249.50;;;8.08;67.50
64889;BME280;51386;53.082;8.816;2024-02-26T01:31:34;100245.09;;;8.09;67.67
64889;BME280;51386;53.082;8.816;2024-02-26T01:34:02;100243.28;;;8.09;67.59
64889;BME280;51386;53.082;8.816;2024-02-26T01:36:31;100241.31;;;8.11;67.41
64889;BME280;51386;53.082;8.816;2024-02-26T01:38:59;100238.69;;;8.11;67.47
64889;BME280;51386;53.082;8.816;2024-02-26T01:41:27;100240.69;;;8.09;67.33
64889;BME280;51386;53.082;8.816;2024-02-26T01:43:56;100251.16;;;8.09;67.63
64889;BME280;51386;53.082;8.816;2024-02-26T01:46:24;100249.81;;;8.13;67.65
64889;BME280;51386;53.082;8.816;2024-02-26T01:48:53;100240.81;;;8.16;67.37
64889;BME280;51386;53.082;8.816;2024-02-26T01:51:22;100243.28;;;8.17;67.32
64889;BME280;51386;53.082;8.816;2024-02-26T01:53:51;100240.66;;;8.17;67.00
64889;BME280;51386;53.082;8.816;2024-02-26T01:56:21;100241.81;;;8.15;67.47
64889;BME280;51386;53.082;8.816;2024-02-26T01:58:50;100247.50;;;8.18;67.18
64889;BME280;51386;53.082;8.816;2024-02-26T02:01:21;100252.41;;;8.22;67.18
64889;BME280;51386;53.082;8.816;2024-02-26T02:03:51;100246.00;;;8.24;67.06
64889;BME280;51386;53.082;8.816;2024-02-26T02:06:20;100251.75;;;8.28;66.86
64889;BME280;51386;53.082;8.816;2024-02-26T02:08:49;100249.31;;;8.26;66.48
64889;BME280;51386;53.082;8.816;2024-02-26T02:11:18;100256.19;;;8.27;66.73
64889;BME280;51386;53.082;8.816;2024-02-26T02:13:47;100254.22;;;8.29;66.78
64889;BME280;51386;53.082;8.816;2024-02-26T02:16:16;100263.53;;;8.32;66.43
64889;BME280;51386;53.082;8.816;2024-02-26T02:18:44;100263.53;;;8.32;65.93
64889;BME280;51386;53.082;8.816;2024-02-26T02:21:12;100266.50;;;8.29;65.93
64889;BME280;51386;53.082;8.816;2024-02-26T02:23:41;100263.09;;;8.20;65.79
64889;BME280;51386;53.082;8.816;2024-02-26T02:26:14;100267.19;;;8.14;66.04
64889;BME280;51386;53.082;8.816;2024-02-26T02:28:44;100267.19;;;8.14;66.32
64889;BME280;51386;53.082;8.816;2024-02-26T02:31:13;100268.47;;;8.18;66.37
64889;BME280;51386;53.082;8.816;2024-02-26T02:33:43;100271.28;;;8.17;65.74
64889;BME280;51386;53.082;8.816;2024-02-26T02:36:11;100276.03;;;8.13;66.09
64889;BME280;51386;53.082;8.816;2024-02-26T02:38:49;100272.63;;;8.05;65.47
64889;BME280;51386;53.082;8.816;2024-02-26T02:41:19;100275.78;;;8.00;65.49
64889;BME280;51386;53.082;8.816;2024-02-26T02:43:47;100276.78;;;7.91;65.47
64889;BME280;51386;53.082;8.816;2024-02-26T02:46:15;100273.53;;;7.81;65.35
64889;BME280;51386;53.082;8.816;2024-02-26T02:48:44;100270.59;;;7.68;65.04
64889;BME280;51386;53.082;8.816;2024-02-26T02:51:12;100270.97;;;7.57;65.06
64889;BME280;51386;53.082;8.816;2024-02-26T02:53:41;100268.84;;;7.44;65.24
64889;BME280;51386;53.082;8.816;2024-02-26T02:56:09;100273.94;;;7.38;66.35
64889;BME280;51386;53.082;8.816;2024-02-26T02:58:38;100275.91;;;7.36;66.23
64889;BME280;51386;53.082;8.816;2024-02-26T03:01:06;100279.50;;;7.35;66.44
64889;BME280;51386;53.082;8.816;2024-02-26T03:03:34;100285.41;;;7.29;66.16
64889;BME280;51386;53.082;8.816;2024-02-26T03:06:04;100286.03;;;7.23;65.81
64889;BME280;51386;53.082;8.816;2024-02-26T03:08:33;100286.06;;;7.15;65.95
64889;BME280;51386;53.082;8.816;2024-02-26T03:11:05;100292.59;;;7.11;66.02
64889;BME280;51386;53.082;8.816;2024-02-26T03:13:33;100289.00;;;7.12;67.15
64889;BME280;51386;53.082;8.816;2024-02-26T03:16:05;100298.16;;;7.16;67.47
64889;BME280;51386;53.082;8.816;2024-02-26T03:18:34;100297.50;;;7.22;67.57
64889;BME280;51386;53.082;8.816;2024-02-26T03:21:03;100305.53;;;7.28;67.82
64889;BME280;51386;53.082;8.816;2024-02-26T03:23:32;100312.88;;;7.33;67.44
64889;BME280;51386;53.082;8.816;2024-02-26T03:26:04;100311.25;;;7.32;67.29
64889;BME280;51386;53.082;8.816;2024-02-26T03:28:32;100310.75;;;7.36;67.72
64889;BME280;51386;53.082;8.816;2024-02-26T03:31:01;100316.81;;;7.45;67.45
64889;BME280;51386;53.082;8.816;2024-02-26T03:33:30;100319.75;;;7.50;67.29
64889;BME280;51386;53.082;8.816;2024-02-26T03:35:58;100327.28;;;7.53;66.75
64889;BME280;51386;53.082;8.816;2024-02-26T03:38:27;100326.63;;;7.51;67.01
64889;BME280;51386;53.082;8.816;2024-02-26T03:40:56;100337.44;;;7.48;66.49
64889;BME280;51386;53.082;8.816;2024-02-26T03:43:25;100343.31;;;7.42;66.33
64889;BME280;51386;53.082;8.816;2024-02-26T03:45:53;100352.16;;;7.41;66.64
64889;BME280;51386;53.082;8.816;2024-02-26T03:48:21;100348.53;;;7.42;66.73
64889;BME280;51386;53.082;8.816;2024-02-26T03:50:50;100339.72;;;7.43;66.71
64889;BME280;51386;53.082;8.816;2024-02-26T03:53:18;100344.44;;;7.39;66.21
64889;BME280;51386;53.082;8.816;2024-02-26T03:55:47;100347.06;;;7.31;66.04
64889;BME280;51386;53.082;8.816;2024-02-26T03:58:15;100340.50;;;7.27;66.54
64889;BME280;51386;53.082;8.816;2024-02-26T04:00:43;100340.50;;;7.27;66.70
64889;BME280;51386;53.082;8.816;2024-02-26T04:03:12;100347.88;;;7.24;66.20
64889;BME280;51386;53.082;8.816;2024-02-26T04:05:41;100351.16;;;7.18;66.21
64889;BME280;51386;53.082;8.816;2024-02-26T04:08:10;100340.50;;;7.11;66.04
64889;BME280;51386;53.082;8.816;2024-02-26T04:10:38;100349.97;;;7.04;66.04
64889;BME280;51386;53.082;8.816;2024-02-26T04:13:08;100359.16;;;7.00;66.41
64889;BME280;51386;53.082;8.816;2024-02-26T04:15:36;100363.25;;;7.03;67.23
64889;BME280;51386;53.082;8.816;2024-02-26T04:18:05;100364.53;;;7.07;67.28
64889;BME280;51386;53.082;8.816;2024-02-26T04:20:33;100359.31;;;7.07;66.82
64889;BME280;51386;53.082;8.816;2024-02-26T04:23:03;100372.41;;;7.07;66.88
64889;BME280;51386;53.082;8.816;2024-02-26T04:25:32;100368.63;;;7.09;67.12
64889;BME280;51386;53.082;8.816;2024-02-26T04:28:00;100368.47;;;7.11;67.06
64889;BME280;51386;53.082;8.816;2024-02-26T04:30:29;100376.00;;;7.14;67.03
64889;BME280;51386;53.082;8.816;2024-02-26T04:32:57;100373.38;;;7.14;66.90
64889;BME280;51386;53.082;8.816;2024-02-26T04:35:26;100372.09;;;7.18;67.17
64889;BME280;51386;53.082;8.816;2024-02-26T04:37:54;100377.16;;;7.27;67.31
64889;BME280;51386;53.082;8.816;2024-02-26T04:40:22;100382.59;;;7.34;67.20
64889;BME280;51386;53.082;8.816;2024-02-26T04:42:51;100388.78;;;7.33;66.78
64889;BME280;51386;53.082;8.816;2024-02-26T04:45:20;100385.84;;;7.36;66.89
64889;BME280;51386;53.082;8.816;2024-02-26T04:47:48;100393.22;;;7.40;66.91
64889;BME280;51386;53.082;8.816;2024-02-26T04:50:17;100392.25;;;7.41;66.28
64889;BME280;51386;53.082;8.816;2024-02-26T04:52:46;100396.66;;;7.41;66.24
64889;BME280;51386;53.082;8.816;2024-02-26T04:55:14;100398.97;;;7.44;66.62
64889;BME280;51386;53.082;8.816;2024-02-26T04:57:42;100399.25;;;7.49;66.52
64889;BME280;51386;53.082;8.816;2024-02-26T05:00:13;100395.19;;;7.55;66.71
64889;BME280;51386;53.082;8.816;2024-02-26T05:02:42;100395.69;;;7.58;66.13
64889;BME280;51386;53.082;8.816;2024-02-26T05:05:10;100402.41;;;7.61;66.20
64889;BME280;51386;53.082;8.816;2024-02-26T05:07:41;100413.34;;;7.64;65.93
64889;BME280;51386;53.082;8.816;2024-02-26T05:10:10;100418.41;;;7.66;65.99
64889;BME280;51386;53.082;8.816;2024-02-26T05:12:39;100420.88;;;7.67;65.73
64889;BME280;51386;53.082;8.816;2024-02-26T05:15:09;100415.78;;;7.66;65.63
64889;BME280;51386;53.082;8.816;2024-02-26T05:17:38;100418.91;;;7.61;65.43
64889;BME280;51386;53.082;8.816;2024-02-26T05:20:07;100423.81;;;7.56;65.33
64889;BME280;51386;53.082;8.816;2024-02-26T05:22:37;100427.44;;;7.55;65.68
64889;BME280;51386;53.082;8.816;2024-02-26T05:25:05;100429.03;;;7.56;65.95
64889;BME280;51386;53.082;8.816;2024-02-26T05:27:34;100435.63;;;7.60;65.65
64889;BME280;51386;53.082;8.816;2024-02-26T05:30:03;100437.25;;;7.61;65.69
64889;BME280;51386;53.082;8.816;2024-02-26T05:32:31;100437.25;;;7.61;65.67
64889;BME280;51386;53.082;8.816;2024-02-26T05:34:59;100439.19;;;7.59;65.23
64889;BME280;51386;53.082;8.816;2024-02-26T05:37:28;100438.72;;;7.56;65.23
64889;BME280;51386;53.082;8.816;2024-02-26T05:39:56;100435.28;;;7.55;65.56
64889;BME280;51386;53.082;8.816;2024-02-26T05:42:26;100428.25;;;7.56;65.28
64889;BME280;51386;53.082;8.816;2024-02-26T05:44:54;100430.19;;;7.53;65.17
64889;BME280;51386;53.082;8.816;2024-02-26T05:47:23;100428.06;;;7.49;64.96
64889;BME280;51386;53.082;8.816;2024-02-26T05:49:51;100430.03;;;7.47;65.39
64889;BME280;51386;53.082;8.816;2024-02-26T05:52:19;100433.66;;;7.46;65.57
64889;BME280;51386;53.082;8.816;2024-02-26T05:54:52;100433.97;;;7.51;65.89
64889;BME280;51386;53.082;8.816;2024-02-26T05:57:20;100432.66;;;7.55;65.79
64889;BME280;51386;53.082;8.816;2024-02-26T05:59:49;100441.81;;;7.59;65.48
64889;BME280;51386;53.082;8.816;2024-02-26T06:02:17;100441.69;;;7.61;65.49
64889;BME280;51386;53.082;8.816;2024-02-26T06:04:46;100440.50;;;7.63;65.53
64889;BME280;51386;53.082;8.816;2024-02-26T06:07:15;100444.47;;;7.67;65.72
64889;BME280;51386;53.082;8.816;2024-02-26T06:09:43;100448.56;;;7.70;65.63
64889;BME280;51386;53.082;8.816;2024-02-26T06:12:11;100441.66;;;7.69;65.35
64889;BME280;51386;53.082;8.816;2024-02-26T06:14:41;100445.09;;;7.69;65.29
64889;BME280;51386;53.082;8.816;2024-02-26T06:17:10;100450.34;;;7.69;65.33
64889;BME280;51386;53.082;8.816;2024-02-26T06:19:39;100456.41;;;7.70;65.48
64889;BME280;51386;53.082;8.816;2024-02-26T06:22:07;100459.50;;;7.73;65.67
64889;BME280;51386;53.082;8.816;2024-02-26T06:24:36;100460.84;;;7.77;65.58
64889;BME280;51386;53.082;8.816;2024-02-26T06:27:05;100462.16;;;7.81;65.56
64889;BME280;51386;53.082;8.816;2024-02-26T06:29:33;100462.78;;;7.83;65.38
64889;BME280;51386;53.082;8.816;2024-02-26T06:32:02;100471.97;;;7.87;65.51
64889;BME280;51386;53.082;8.816;2024-02-26T06:34:30;100479.50;;;7.90;65.51
64889;BME280;51386;53.082;8.816;2024-02-26T06:36:58;100468.84;;;7.92;65.32
64889;BME280;51386;53.082;8.816;2024-02-26T06:39:27;100484.41;;;7.93;65.14
64889;BME280;51386;53.082;8.816;2024-02-26T06:41:55;100485.06;;;7.95;65.01
64889;BME280;51386;53.082;8.816;2024-02-26T06:44:28;100492.09;;;7.95;64.94
64889;BME280;51386;53.082;8.816;2024-02-26T06:47:00;100497.03;;;7.98;65.31
64889;BME280;51386;53.082;8.816;2024-02-26T06:49:29;100501.44;;;7.97;64.95
64889;BME280;51386;53.082;8.816;2024-02-26T06:51:58;100499.00;;;7.96;64.76
64889;BME280;51386;53.082;8.816;2024-02-26T06:54:26;100508.97;;;7.92;64.98
64889;BME280;51386;53.082;8.816;2024-02-26T06:56:55;100510.94;;;7.90;65.09
64889;BME280;51386;53.082;8.816;2024-02-26T06:59:23;100512.59;;;7.91;65.20
64889;BME280;51386;53.082;8.816;2024-02-26T07:01:52;100511.44;;;7.94;65.40
64889;BME280;51386;53.082;8.816;2024-02-26T07:04:21;100507.19;;;8.01;65.36
64889;BME280;51386;53.082;8.816;2024-02-26T07:06:50;100517.81;;;8.07;65.29
64889;BME280;51386;53.082;8.816;2024-02-26T07:09:18;100522.75;;;8.10;65.23
64889;BME280;51386;53.082;8.816;2024-02-26T07:11:47;100521.09;;;8.09;64.80
64889;BME280;51386;53.082;8.816;2024-02-26T07:14:15;100527.81;;;8.04;64.69
64889;BME280;51386;53.082;8.816;2024-02-26T07:16:43;100525.34;;;8.02;64.77
64889;BME280;51386;53.082;8.816;2024-02-26T07:19:12;100528.28;;;7.99;65.18
64889;BME280;51386;53.082;8.816;2024-02-26T07:21:40;100541.72;;;7.96;64.97
64889;BME280;51386;53.082;8.816;2024-02-26T07:24:09;100534.84;;;7.95;65.07
64889;BME280;51386;53.082;8.816;2024-02-26T07:26:37;100539.28;;;8.03;65.67
64889;BME280;51386;53.082;8.816;2024-02-26T07:29:06;100538.47;;;8.10;65.41
64889;BME280;51386;53.082;8.816;2024-02-26T07:31:34;100542.72;;;8.19;65.40
64889;BME280;51386;53.082;8.816;2024-02-26T07:34:02;100544.53;;;8.19;65.10
64889;BME280;51386;53.082;8.816;2024-02-26T07:36:31;100547.63;;;8.23;65.26
64889;BME280;51386;53.082;8.816;2024-02-26T07:39:00;100546.19;;;8.28;65.10
64889;BME280;51386;53.082;8.816;2024-02-26T07:41:29;100543.72;;;8.35;65.03
64889;BME280;51386;53.082;8.816;2024-02-26T07:43:57;100546.34;;;8.43;65.28
64889;BME280;51386;53.082;8.816;2024-02-26T07:46:26;100539.78;;;8.47;64.71
64889;BME280;51386;53.082;8.816;2024-02-26T07:48:54;100552.25;;;8.53;64.78
64889;BME280;51386;53.082;8.816;2024-02-26T07:51:23;100546.50;;;8.57;64.60
64889;BME280;51386;53.082;8.816;2024-02-26T07:53:52;100549.44;;;8.62;64.76
64889;BME280;51386;53.082;8.816;2024-02-26T07:56:21;100550.75;;;8.66;64.60
64889;BME280;51386;53.082;8.816;2024-02-26T07:58:49;100554.50;;;8.72;64.71
64889;BME280;51386;53.082;8.816;2024-02-26T08:01:17;100553.34;;;8.74;64.49
64889;BME280;51386;53.082;8.816;2024-02-26T08:03:46;100551.22;;;8.78;64.59
64889;BME280;51386;53.082;8.816;2024-02-26T08:06:16;100553.50;;;8.81;64.37
64889;BME280;51386;53.082;8.816;2024-02-26T08:08:44;100561.69;;;8.86;64.28
64889;BME280;51386;53.082;8.816;2024-02-26T08:11:16;100563.69;;;8.84;63.90
64889;BME280;51386;53.082;8.816;2024-02-26T08:13:44;100560.03;;;8.85;64.42
64889;BME280;51386;53.082;8.816;2024-02-26T08:16:13;100567.41;;;8.90;64.60
64889;BME280;51386;53.082;8.816;2024-02-26T08:18:41;100564.63;;;8.91;64.36
64889;BME280;51386;53.082;8.816;2024-02-26T08:21:10;100567.91;;;8.93;64.29
64889;BME280;51386;53.082;8.816;2024-02-26T08:23:38;100569.19;;;8.97;64.19
64889;BME280;51386;53.082;8.816;2024-02-26T08:26:07;100572.16;;;9.02;64.07
64889;BME280;51386;53.082;8.816;2024-02-26T08:28:38;100577.84;;;9.06;63.90
64889;BME280;51386;53.082;8.816;2024-02-26T08:31:07;100579.34;;;9.08;64.32
64889;BME280;51386;53.082;8.816;2024-02-26T08:33:36;100582.91;;;9.15;64.43
64889;BME280;51386;53.082;8.816;2024-02-26T08:36:06;100584.25;;;9.19;64.05
64889;BME280;51386;53.082;8.816;2024-02-26T08:38:34;100584.25;;;9.19;63.92
64889;BME280;51386;53.082;8.816;2024-02-26T08:41:04;100593.09;;;9.18;63.54
64889;BME280;51386;53.082;8.816;2024-02-26T08:43:33;100592.75;;;9.21;63.74
64889;BME280;51386;53.082;8.816;2024-02-26T08:46:01;100590.44;;;9.26;63.78
64889;BME280;51386;53.082;8.816;2024-02-26T08:48:29;100586.16;;;9.33;63.97
64889;BME280;51386;53.082;8.816;2024-02-26T08:50:58;100590.72;;;9.39;63.51
64889;BME280;51386;53.082;8.816;2024-02-26T08:53:26;100583.13;;;9.44;63.51
64889;BME280;51386;53.082;8.816;2024-02-26T08:56:07;100587.72;;;9.50;63.35
64889;BME280;51386;53.082;8.816;2024-02-26T08:58:36;100595.09;;;9.55;63.63
64889;BME280;51386;53.082;8.816;2024-02-26T09:01:04;100593.06;;;9.96;62.82
64889;BME280;51386;53.082;8.816;2024-02-26T09:03:33;100594.22;;;9.93;62.60
64889;BME280;51386;53.082;8.816;2024-02-26T09:06:02;100601.94;;;9.95;62.64
64889;BME280;51386;53.082;8.816;2024-02-26T09:08:30;100597.94;;;9.99;62.53
64889;BME280;51386;53.082;8.816;2024-02-26T09:10:59;100595.63;;;10.04;62.71
64889;BME280;51386;53.082;8.816;2024-02-26T09:13:27;100602.16;;;10.08;62.54
64889;BME280;51386;53.082;8.816;2024-02-26T09:15:55;100606.13;;;10.12;62.49
64889;BME280;51386;53.082;8.816;2024-02-26T09:18:24;100602.34;;;10.14;62.38
64889;BME280;51386;53.082;8.816;2024-02-26T09:20:52;100616.56;;;10.20;61.87
64889;BME280;51386;53.082;8.816;2024-02-26T09:23:21;100615.91;;;10.26;62.00
64889;BME280;51386;53.082;8.816;2024-02-26T09:25:49;100616.81;;;10.33;62.00
64889;BME280;51386;53.082;8.816;2024-02-26T09:28:17;100620.19;;;10.42;61.94
64889;BME280;51386;53.082;8.816;2024-02-26T09:30:46;100625.59;;;10.48;61.75
64889;BME280;51386;53.082;8.816;2024-02-26T09:33:15;100630.50;;;10.51;60.94
64889;BME280;51386;53.082;8.816;2024-02-26T09:35:43;100625.59;;;10.48;61.26
64889;BME280;51386;53.082;8.816;2024-02-26T09:38:12;100624.78;;;10.48;61.02
64889;BME280;51386;53.082;8.816;2024-02-26T09:40:40;100623.59;;;10.50;61.16
64889;BME280;51386;53.082;8.816;2024-02-26T09:43:14;100637.75;;;10.49;60.85
64889;BME280;51386;53.082;8.816;2024-02-26T09:45:43;100630.88;;;10.48;60.91
64889;BME280;51386;53.082;8.816;2024-02-26T09:48:12;100631.50;;;10.50;61.07
64889;BME280;51386;53.082;8.816;2024-02-26T09:50:44;100635.50;;;10.61;61.10
64889;BME280;51386;53.082;8.816;2024-02-26T09:53:12;100638.00;;;10.77;60.93
64889;BME280;51386;53.082;8.816;2024-02-26T09:55:42;100647.22;;;10.96;60.86
64889;BME280;51386;53.082;8.816;2024-02-26T09:58:11;100645.34;;;11.19;60.49
64889;BME280;51386;53.082;8.816;2024-02-26T10:00:53;100651.34;;;11.42;60.30
64889;BME280;51386;53.082;8.816;2024-02-26T10:03:36;100650.78;;;11.61;59.88
64889;BME280;51386;53.082;8.816;2024-02-26T10:06:09;100656.22;;;11.89;58.66
64889;BME280;51386;53.082;8.816;2024-02-26T10:08:43;100650.84;;;11.97;58.36
64889;BME280;51386;53.082;8.816;2024-02-26T10:11:13;100656.47;;;12.08;58.29
64889;BME280;51386;53.082;8.816;2024-02-26T10:13:41;100657.25;;;12.23;58.17
64889;BME280;51386;53.082;8.816;2024-02-26T10:16:09;100664.28;;;12.38;57.49
64889;BME280;51386;53.082;8.816;2024-02-26T10:18:52;100662.78;;;12.50;57.56
64889;BME280;51386;53.082;8.816;2024-02-26T10:21:26;100667.34;;;12.62;57.00
64889;BME280;51386;53.082;8.816;2024-02-26T10:23:54;100660.75;;;12.73;56.92
64889;BME280;51386;53.082;8.816;2024-02-26T10:26:23;100661.38;;;12.75;56.29
64889;BME280;51386;53.082;8.816;2024-02-26T10:28:52;100658.94;;;12.73;56.20
64889;BME280;51386;53.082;8.816;2024-02-26T10:31:21;100655.28;;;12.74;56.05
64889;BME280;51386;53.082;8.816;2024-02-26T10:33:55;100673.13;;;12.72;56.15
64889;BME280;51386;53.082;8.816;2024-02-26T10:36:26;100663.75;;;12.70;55.55
64889;BME280;51386;53.082;8.816;2024-02-26T10:39:14;100657.88;;;12.68;55.72
64889;BME280;51386;53.082;8.816;2024-02-26T10:41:44;100671.94;;;12.75;55.85
64889;BME280;51386;53.082;8.816;2024-02-26T10:44:13;100670.88;;;12.90;55.38
64889;BME280;51386;53.082;8.816;2024-02-26T10:46:47;100674.75;;;13.16;55.81
64889;BME280;51386;53.082;8.816;2024-02-26T10:49:17;100673.72;;;13.44;55.50
64889;BME280;51386;53.082;8.816;2024-02-26T10:51:55;100673.47;;;13.74;54.62
64889;BME280;51386;53.082;8.816;2024-02-26T10:54:26;100678.81;;;13.93;54.17
64889;BME280;51386;53.082;8.816;2024-02-26T10:56:59;100684.16;;;14.00;52.98
64889;BME280;51386;53.082;8.816;2024-02-26T10:59:31;100689.22;;;13.95;53.63
64889;BME280;51386;53.082;8.816;2024-02-26T11:02:01;100685.38;;;13.97;53.36
64889;BME280;51386;53.082;8.816;2024-02-26T11:04:31;100689.03;;;14.03;52.91
64889;BME280;51386;53.082;8.816;2024-02-26T11:07:00;100685.78;;;14.01;52.79
64889;BME280;51386;53.082;8.816;2024-02-26T11:09:30;100691.03;;;13.94;52.69
64889;BME280;51386;53.082;8.816;2024-02-26T11:11:59;100690.44;;;13.99;52.97
64889;BME280;51386;53.082;8.816;2024-02-26T11:14:29;100696.38;;;14.07;53.03
64889;BME280;51386;53.082;8.816;2024-02-26T11:17:00;100697.03;;;14.16;52.65
64889;BME280;51386;53.082;8.816;2024-02-26T11:19:31;100692.97;;;14.20;52.59
64889;BME280;51386;53.082;8.816;2024-02-26T11:22:04;100696.81;;;14.17;51.80
64889;BME280;51386;53.082;8.816;2024-02-26T11:24:48;100695.97;;;14.04;51.61
64889;BME280;51386;53.082;8.816;2024-02-26T11:27:19;100699.59;;;13.96;51.92
64889;BME280;51386;53.082;8.816;2024-02-26T11:29:52;100703.06;;;13.97;52.05
64889;BME280;51386;53.082;8.816;2024-02-26T11:32:23;100704.28;;;14.01;52.43
64889;BME280;51386;53.082;8.816;2024-02-26T11:34:53;100705.75;;;14.10;52.54
64889;BME280;51386;53.082;8.816;2024-02-26T11:37:22;100712.53;;;14.19;52.08
64889;BME280;51386;53.082;8.816;2024-02-26T11:39:52;100698.91;;;14.29;52.36
64889;BME280;51386;53.082;8.816;2024-02-26T11:42:24;100700.19;;;14.39;52.01
64889;BME280;51386;53.082;8.816;2024-02-26T11:44:57;100700.19;;;14.39;51.81
64889;BME280;51386;53.082;8.816;2024-02-26T11:47:28;100695.84;;;14.25;51.18
64889;BME280;51386;53.082;8.816;2024-02-26T11:49:57;100703.31;;;14.08;51.43
64889;BME280;51386;53.082;8.816;2024-02-26T11:52:26;100697.16;;;13.95;51.25
64889;BME280;51386;53.082;8.816;2024-02-26T11:54:56;100703.63;;;13.86;51.62
64889;BME280;51386;53.082;8.816;2024-02-26T12:00:15;100714.59;;;13.83;52.11
64889;BME280;51386;53.082;8.816;2024-02-26T12:02:52;100708.94;;;13.86;52.02
64889;BME280;51386;53.082;8.816;2024-02-26T12:05:33;100719.06;;;13.82;52.24
64889;BME280;51386;53.082;8.816;2024-02-26T12:08:07;100719.28;;;13.81;51.98
64889;BME280;51386;53.082;8.816;2024-02-26T12:10:38;100723.53;;;13.82;51.86
64889;BME280;51386;53.082;8.816;2024-02-26T12:13:17;100722.31;;;13.78;52.02
64889;BME280;51386;53.082;8.816;2024-02-26T12:15:56;100721.28;;;13.79;51.76
64889;BME280;51386;53.082;8.816;2024-02-26T12:18:28;100726.41;;;13.87;51.84
64889;BME280;51386;53.082;8.816;2024-02-26T12:21:04;100732.75;;;13.86;51.67
64889;BME280;51386;53.082;8.816;2024-02-26T12:23:32;100730.31;;;13.91;52.02
64889;BME280;51386;53.082;8.816;2024-02-26T12:26:02;100736.66;;;14.03;51.90
64889;BME280;51386;53.082;8.816;2024-02-26T12:28:34;100735.91;;;14.15;51.82
64889;BME280;51386;53.082;8.816;2024-02-26T12:31:04;100738.44;;;14.30;51.63
64889;BME280;51386;53.082;8.816;2024-02-26T12:33:34;100735.44;;;14.40;51.19
64889;BME280;51386;53.082;8.816;2024-02-26T12:36:03;100742.38;;;14.47;50.98
64889;BME280;51386;53.082;8.816;2024-02-26T12:38:31;100738.91;;;14.53;51.05
64889;BME280;51386;53.082;8.816;2024-02-26T12:41:00;100734.47;;;14.67;51.24
64889;BME280;51386;53.082;8.816;2024-02-26T12:43:30;100747.97;;;14.85;50.71
64889;BME280;51386;53.082;8.816;2024-02-26T12:45:58;100747.13;;;14.98;50.51
64889;BME280;51386;53.082;8.816;2024-02-26T12:48:31;100756.56;;;15.07;50.24
64889;BME280;51386;53.082;8.816;2024-02-26T12:51:00;100755.31;;;15.16;50.12
64889;BME280;51386;53.082;8.816;2024-02-26T12:53:29;100755.75;;;15.26;49.96
64889;BME280;51386;53.082;8.816;2024-02-26T12:55:57;100758.16;;;15.34;49.90
64889;BME280;51386;53.082;8.816;2024-02-26T12:58:26;100761.03;;;15.39;49.31
64889;BME280;51386;53.082;8.816;2024-02-26T13:00:56;100764.72;;;15.38;48.93
64889;BME280;51386;53.082;8.816;2024-02-26T13:03:25;100761.03;;;15.39;49.20
64889;BME280;51386;53.082;8.816;2024-02-26T13:05:54;100772.06;;;15.42;48.93
64889;BME280;51386;53.082;8.816;2024-02-26T13:08:23;100769.81;;;15.46;48.68
64889;BME280;51386;53.082;8.816;2024-02-26T13:10:52;100764.34;;;15.47;48.40